sensor_id;sensor_type;location;lat;lon;timestamp;P1;durP1;ratioP1;P2;durP2;ratioP2
57969;SDS011;43777;42.656;23.264;2022-07-06T00:01:43;14.90;;;13.35;;
57969;SDS011;43777;42.656;23.264;2022-07-06T00:04:10;15.95;;;14.25;;
57969;SDS011;43777;42.656;23.264;2022-07-06T00:06:36;15.73;;;14.13;;
57969;SDS011;43777;42.656;23.264;2022-07-06T00:09:02;17.55;;;14.57;;
57969;SDS011;43777;42.656;23.264;2022-07-06T00:11:28;14.82;;;13.48;;
57969;SDS011;43777;42.656;23.264;2022-07-06T00:13:54;15.30;;;13.90;;
57969;SDS011;43777;42.656;23.264;2022-07-06T00:16:21;17.27;;;15.05;;
57969;SDS011;43777;42.656;23.264;2022-07-06T00:18:47;14.77;;;13.23;;
57969;SDS011;43777;42.656;23.264;2022-07-06T00:21:14;15.05;;;12.95;;
57969;SDS011;43777;42.656;23.264;2022-07-06T00:23:40;14.90;;;13.38;;
57969;SDS011;43777;42.656;23.264;2022-07-06T00:26:06;14.68;;;13.13;;
57969;SDS011;43777;42.656;23.264;2022-07-06T00:28:32;14.73;;;13.35;;
57969;SDS011;43777;42.656;23.264;2022-07-06T00:30:58;14.55;;;13.05;;
57969;SDS011;43777;42.656;23.264;2022-07-06T00:33:24;17.33;;;13.45;;
57969;SDS011;43777;42.656;23.264;2022-07-06T00:35:50;15.32;;;13.63;;
57969;SDS011;43777;42.656;23.264;2022-07-06T00:38:17;14.95;;;13.50;;
57969;SDS011;43777;42.656;23.264;2022-07-06T00:40:43;14.10;;;12.75;;
57969;SDS011;43777;42.656;23.264;2022-07-06T00:43:09;14.05;;;12.70;;
57969;SDS011;43777;42.656;23.264;2022-07-06T00:45:35;15.30;;;13.75;;
57969;SDS011;43777;42.656;23.264;2022-07-06T00:48:01;15.18;;;12.65;;
57969;SDS011;43777;42.656;23.264;2022-07-06T00:50:27;15.73;;;13.40;;
57969;SDS011;43777;42.656;23.264;2022-07-06T00:52:54;14.60;;;13.27;;
57969;SDS011;43777;42.656;23.264;2022-07-06T00:55:23;15.18;;;13.57;;
57969;SDS011;43777;42.656;23.264;2022-07-06T00:57:49;14.88;;;13.48;;
57969;SDS011;43777;42.656;23.264;2022-07-06T01:00:17;15.18;;;13.63;;
57969;SDS011;43777;42.656;23.264;2022-07-06T01:02:43;15.00;;;13.45;;
57969;SDS011;43777;42.656;23.264;2022-07-06T01:05:10;16.15;;;14.55;;
57969;SDS011;43777;42.656;23.264;2022-07-06T01:07:37;14.40;;;12.90;;
57969;SDS011;43777;42.656;23.264;2022-07-06T01:10:04;14.75;;;13.35;;
57969;SDS011;43777;42.656;23.264;2022-07-06T01:12:30;15.65;;;13.25;;
57969;SDS011;43777;42.656;23.264;2022-07-06T01:14:57;16.13;;;13.63;;
57969;SDS011;43777;42.656;23.264;2022-07-06T01:17:23;15.75;;;14.07;;
57969;SDS011;43777;42.656;23.264;2022-07-06T01:19:49;15.27;;;13.70;;
57969;SDS011;43777;42.656;23.264;2022-07-06T01:22:15;15.52;;;14.02;;
57969;SDS011;43777;42.656;23.264;2022-07-06T01:24:41;16.85;;;14.07;;
57969;SDS011;43777;42.656;23.264;2022-07-06T01:27:07;15.35;;;13.60;;
57969;SDS011;43777;42.656;23.264;2022-07-06T01:29:34;16.33;;;14.30;;
57969;SDS011;43777;42.656;23.264;2022-07-06T01:32:01;16.30;;;13.77;;
57969;SDS011;43777;42.656;23.264;2022-07-06T01:34:27;14.93;;;13.48;;
57969;SDS011;43777;42.656;23.264;2022-07-06T01:36:53;14.75;;;13.23;;
57969;SDS011;43777;42.656;23.264;2022-07-06T01:39:20;15.48;;;13.88;;
57969;SDS011;43777;42.656;23.264;2022-07-06T01:41:46;15.00;;;13.60;;
57969;SDS011;43777;42.656;23.264;2022-07-06T01:44:12;15.65;;;13.13;;
57969;SDS011;43777;42.656;23.264;2022-07-06T01:46:38;15.07;;;13.35;;
57969;SDS011;43777;42.656;23.264;2022-07-06T01:49:05;15.15;;;13.57;;
57969;SDS011;43777;42.656;23.264;2022-07-06T01:51:31;15.57;;;13.95;;
57969;SDS011;43777;42.656;23.264;2022-07-06T01:53:57;15.70;;;13.95;;
57969;SDS011;43777;42.656;23.264;2022-07-06T01:56:24;21.52;;;13.38;;
57969;SDS011;43777;42.656;23.264;2022-07-06T01:58:50;15.15;;;13.52;;
57969;SDS011;43777;42.656;23.264;2022-07-06T02:01:17;13.80;;;12.40;;
57969;SDS011;43777;42.656;23.264;2022-07-06T02:03:44;15.00;;;13.50;;
57969;SDS011;43777;42.656;23.264;2022-07-06T02:06:10;15.73;;;14.23;;
57969;SDS011;43777;42.656;23.264;2022-07-06T02:08:40;14.02;;;12.77;;
57969;SDS011;43777;42.656;23.264;2022-07-06T02:11:06;14.10;;;12.73;;
57969;SDS011;43777;42.656;23.264;2022-07-06T02:13:33;13.40;;;11.63;;
57969;SDS011;43777;42.656;23.264;2022-07-06T02:15:59;13.63;;;12.35;;
57969;SDS011;43777;42.656;23.264;2022-07-06T02:18:25;13.02;;;11.75;;
57969;SDS011;43777;42.656;23.264;2022-07-06T02:20:51;12.25;;;11.15;;
57969;SDS011;43777;42.656;23.264;2022-07-06T02:23:17;16.05;;;11.00;;
57969;SDS011;43777;42.656;23.264;2022-07-06T02:25:43;13.52;;;12.13;;
57969;SDS011;43777;42.656;23.264;2022-07-06T02:28:10;14.80;;;13.27;;
57969;SDS011;43777;42.656;23.264;2022-07-06T02:30:36;14.65;;;13.18;;
57969;SDS011;43777;42.656;23.264;2022-07-06T02:33:02;13.50;;;12.30;;
57969;SDS011;43777;42.656;23.264;2022-07-06T02:35:28;13.77;;;12.48;;
57969;SDS011;43777;42.656;23.264;2022-07-06T02:37:54;12.90;;;11.70;;
57969;SDS011;43777;42.656;23.264;2022-07-06T02:40:20;12.52;;;11.43;;
57969;SDS011;43777;42.656;23.264;2022-07-06T02:42:46;13.35;;;11.90;;
57969;SDS011;43777;42.656;23.264;2022-07-06T02:45:12;12.20;;;10.98;;
57969;SDS011;43777;42.656;23.264;2022-07-06T02:47:39;12.18;;;11.07;;
57969;SDS011;43777;42.656;23.264;2022-07-06T02:50:05;13.23;;;11.90;;
57969;SDS011;43777;42.656;23.264;2022-07-06T02:52:31;12.25;;;11.05;;
57969;SDS011;43777;42.656;23.264;2022-07-06T02:54:57;12.00;;;10.77;;
57969;SDS011;43777;42.656;23.264;2022-07-06T02:57:23;12.80;;;11.50;;
57969;SDS011;43777;42.656;23.264;2022-07-06T02:59:49;12.38;;;11.27;;
57969;SDS011;43777;42.656;23.264;2022-07-06T03:02:16;10.38;;;9.48;;
57969;SDS011;43777;42.656;23.264;2022-07-06T03:04:42;11.48;;;10.32;;
57969;SDS011;43777;42.656;23.264;2022-07-06T03:07:08;12.10;;;10.85;;
57969;SDS011;43777;42.656;23.264;2022-07-06T03:09:34;13.65;;;12.35;;
57969;SDS011;43777;42.656;23.264;2022-07-06T03:12:01;14.48;;;13.05;;
57969;SDS011;43777;42.656;23.264;2022-07-06T03:14:27;14.70;;;13.30;;
57969;SDS011;43777;42.656;23.264;2022-07-06T03:16:53;13.23;;;12.02;;
57969;SDS011;43777;42.656;23.264;2022-07-06T03:19:19;11.43;;;10.23;;
57969;SDS011;43777;42.656;23.264;2022-07-06T03:21:45;10.90;;;9.25;;
57969;SDS011;43777;42.656;23.264;2022-07-06T03:24:11;10.50;;;8.95;;
57969;SDS011;43777;42.656;23.264;2022-07-06T03:26:38;9.55;;;8.48;;
57969;SDS011;43777;42.656;23.264;2022-07-06T03:29:04;9.20;;;8.30;;
57969;SDS011;43777;42.656;23.264;2022-07-06T03:31:30;13.02;;;9.20;;
57969;SDS011;43777;42.656;23.264;2022-07-06T03:33:56;10.85;;;8.05;;
57969;SDS011;43777;42.656;23.264;2022-07-06T03:36:22;9.02;;;8.13;;
57969;SDS011;43777;42.656;23.264;2022-07-06T03:38:48;9.38;;;8.40;;
57969;SDS011;43777;42.656;23.264;2022-07-06T03:41:15;10.35;;;8.52;;
57969;SDS011;43777;42.656;23.264;2022-07-06T03:43:41;9.18;;;8.27;;
57969;SDS011;43777;42.656;23.264;2022-07-06T03:46:07;9.40;;;7.88;;
57969;SDS011;43777;42.656;23.264;2022-07-06T03:48:33;8.45;;;7.50;;
57969;SDS011;43777;42.656;23.264;2022-07-06T03:50:59;7.93;;;6.90;;
57969;SDS011;43777;42.656;23.264;2022-07-06T03:53:25;8.63;;;6.72;;
57969;SDS011;43777;42.656;23.264;2022-07-06T03:55:52;7.68;;;6.60;;
57969;SDS011;43777;42.656;23.264;2022-07-06T03:58:36;8.07;;;6.97;;
57969;SDS011;43777;42.656;23.264;2022-07-06T04:01:02;9.85;;;6.75;;
57969;SDS011;43777;42.656;23.264;2022-07-06T04:03:28;7.55;;;6.35;;
57969;SDS011;43777;42.656;23.264;2022-07-06T04:05:54;7.97;;;6.97;;
57969;SDS011;43777;42.656;23.264;2022-07-06T04:08:20;10.20;;;7.15;;
57969;SDS011;43777;42.656;23.264;2022-07-06T04:10:47;8.25;;;6.28;;
57969;SDS011;43777;42.656;23.264;2022-07-06T04:13:13;8.98;;;6.93;;
57969;SDS011;43777;42.656;23.264;2022-07-06T04:15:39;7.93;;;7.03;;
57969;SDS011;43777;42.656;23.264;2022-07-06T04:18:05;7.38;;;6.68;;
57969;SDS011;43777;42.656;23.264;2022-07-06T04:20:31;7.63;;;6.82;;
57969;SDS011;43777;42.656;23.264;2022-07-06T04:22:57;7.97;;;6.60;;
57969;SDS011;43777;42.656;23.264;2022-07-06T04:25:23;8.65;;;7.00;;
57969;SDS011;43777;42.656;23.264;2022-07-06T04:27:49;10.43;;;6.95;;
57969;SDS011;43777;42.656;23.264;2022-07-06T04:30:16;7.75;;;6.57;;
57969;SDS011;43777;42.656;23.264;2022-07-06T04:32:42;9.75;;;6.65;;
57969;SDS011;43777;42.656;23.264;2022-07-06T04:35:08;10.02;;;6.88;;
57969;SDS011;43777;42.656;23.264;2022-07-06T04:37:34;8.55;;;7.18;;
57969;SDS011;43777;42.656;23.264;2022-07-06T04:40:00;9.68;;;7.07;;
57969;SDS011;43777;42.656;23.264;2022-07-06T04:42:27;8.65;;;7.75;;
57969;SDS011;43777;42.656;23.264;2022-07-06T04:44:53;10.43;;;7.15;;
57969;SDS011;43777;42.656;23.264;2022-07-06T04:47:19;9.70;;;7.70;;
57969;SDS011;43777;42.656;23.264;2022-07-06T04:49:45;8.85;;;7.75;;
57969;SDS011;43777;42.656;23.264;2022-07-06T04:52:11;8.38;;;7.55;;
57969;SDS011;43777;42.656;23.264;2022-07-06T04:54:37;11.38;;;8.98;;
57969;SDS011;43777;42.656;23.264;2022-07-06T04:57:03;11.30;;;9.80;;
57969;SDS011;43777;42.656;23.264;2022-07-06T04:59:30;11.77;;;10.57;;
57969;SDS011;43777;42.656;23.264;2022-07-06T05:01:56;16.83;;;11.10;;
57969;SDS011;43777;42.656;23.264;2022-07-06T05:04:22;16.83;;;10.90;;
57969;SDS011;43777;42.656;23.264;2022-07-06T05:06:49;12.98;;;10.55;;
57969;SDS011;43777;42.656;23.264;2022-07-06T05:09:15;14.15;;;10.13;;
57969;SDS011;43777;42.656;23.264;2022-07-06T05:11:41;14.70;;;11.38;;
57969;SDS011;43777;42.656;23.264;2022-07-06T05:14:09;14.25;;;11.32;;
57969;SDS011;43777;42.656;23.264;2022-07-06T05:16:35;14.00;;;11.70;;
57969;SDS011;43777;42.656;23.264;2022-07-06T05:19:01;13.55;;;10.88;;
57969;SDS011;43777;42.656;23.264;2022-07-06T05:21:28;13.20;;;11.88;;
57969;SDS011;43777;42.656;23.264;2022-07-06T05:23:54;12.93;;;11.60;;
57969;SDS011;43777;42.656;23.264;2022-07-06T05:26:20;18.60;;;11.43;;
57969;SDS011;43777;42.656;23.264;2022-07-06T05:28:46;11.95;;;10.77;;
57969;SDS011;43777;42.656;23.264;2022-07-06T05:31:12;12.60;;;11.30;;
57969;SDS011;43777;42.656;23.264;2022-07-06T05:33:38;11.93;;;10.68;;
57969;SDS011;43777;42.656;23.264;2022-07-06T05:36:04;12.20;;;10.90;;
57969;SDS011;43777;42.656;23.264;2022-07-06T05:38:30;15.02;;;11.65;;
57969;SDS011;43777;42.656;23.264;2022-07-06T05:40:57;12.07;;;10.02;;
57969;SDS011;43777;42.656;23.264;2022-07-06T05:43:23;11.70;;;10.00;;
57969;SDS011;43777;42.656;23.264;2022-07-06T05:45:49;17.50;;;10.50;;
57969;SDS011;43777;42.656;23.264;2022-07-06T05:48:15;14.30;;;10.23;;
57969;SDS011;43777;42.656;23.264;2022-07-06T05:51:00;13.07;;;10.50;;
57969;SDS011;43777;42.656;23.264;2022-07-06T05:53:26;14.68;;;10.55;;
57969;SDS011;43777;42.656;23.264;2022-07-06T05:55:52;12.32;;;10.73;;
57969;SDS011;43777;42.656;23.264;2022-07-06T05:58:18;17.92;;;13.18;;
57969;SDS011;43777;42.656;23.264;2022-07-06T06:00:45;11.23;;;10.05;;
57969;SDS011;43777;42.656;23.264;2022-07-06T06:03:11;10.52;;;9.52;;
57969;SDS011;43777;42.656;23.264;2022-07-06T06:05:37;12.00;;;9.32;;
57969;SDS011;43777;42.656;23.264;2022-07-06T06:08:03;12.50;;;9.15;;
57969;SDS011;43777;42.656;23.264;2022-07-06T06:10:29;10.70;;;9.60;;
57969;SDS011;43777;42.656;23.264;2022-07-06T06:12:55;12.38;;;9.50;;
57969;SDS011;43777;42.656;23.264;2022-07-06T06:15:21;12.70;;;10.13;;
57969;SDS011;43777;42.656;23.264;2022-07-06T06:17:47;11.50;;;10.00;;
57969;SDS011;43777;42.656;23.264;2022-07-06T06:20:14;14.55;;;10.20;;
57969;SDS011;43777;42.656;23.264;2022-07-06T06:22:44;12.43;;;10.32;;
57969;SDS011;43777;42.656;23.264;2022-07-06T06:25:11;17.98;;;10.80;;
57969;SDS011;43777;42.656;23.264;2022-07-06T06:27:37;12.45;;;10.15;;
57969;SDS011;43777;42.656;23.264;2022-07-06T06:30:03;12.60;;;10.90;;
57969;SDS011;43777;42.656;23.264;2022-07-06T06:32:30;12.38;;;10.65;;
57969;SDS011;43777;42.656;23.264;2022-07-06T06:34:56;15.40;;;11.45;;
57969;SDS011;43777;42.656;23.264;2022-07-06T06:37:22;12.93;;;11.63;;
57969;SDS011;43777;42.656;23.264;2022-07-06T06:39:48;13.85;;;12.32;;
57969;SDS011;43777;42.656;23.264;2022-07-06T06:42:14;15.73;;;12.20;;
57969;SDS011;43777;42.656;23.264;2022-07-06T06:44:40;18.38;;;13.18;;
57969;SDS011;43777;42.656;23.264;2022-07-06T06:47:06;22.77;;;12.93;;
57969;SDS011;43777;42.656;23.264;2022-07-06T06:49:32;16.40;;;12.20;;
57969;SDS011;43777;42.656;23.264;2022-07-06T06:51:58;12.75;;;11.45;;
57969;SDS011;43777;42.656;23.264;2022-07-06T06:54:25;17.58;;;12.32;;
57969;SDS011;43777;42.656;23.264;2022-07-06T06:56:51;15.25;;;13.15;;
57969;SDS011;43777;42.656;23.264;2022-07-06T06:59:17;14.43;;;12.93;;
57969;SDS011;43777;42.656;23.264;2022-07-06T07:01:43;15.10;;;12.75;;
57969;SDS011;43777;42.656;23.264;2022-07-06T07:04:10;15.30;;;13.65;;
57969;SDS011;43777;42.656;23.264;2022-07-06T07:06:36;16.75;;;13.52;;
57969;SDS011;43777;42.656;23.264;2022-07-06T07:09:03;17.25;;;13.98;;
57969;SDS011;43777;42.656;23.264;2022-07-06T07:11:30;18.95;;;14.35;;
57969;SDS011;43777;42.656;23.264;2022-07-06T07:13:56;16.63;;;14.63;;
57969;SDS011;43777;42.656;23.264;2022-07-06T07:16:22;19.83;;;15.10;;
57969;SDS011;43777;42.656;23.264;2022-07-06T07:18:49;20.85;;;15.77;;
57969;SDS011;43777;42.656;23.264;2022-07-06T07:21:16;18.25;;;15.93;;
57969;SDS011;43777;42.656;23.264;2022-07-06T07:23:42;17.17;;;15.52;;
57969;SDS011;43777;42.656;23.264;2022-07-06T07:26:08;18.20;;;16.38;;
57969;SDS011;43777;42.656;23.264;2022-07-06T07:28:34;20.63;;;16.35;;
57969;SDS011;43777;42.656;23.264;2022-07-06T07:31:00;18.75;;;16.77;;
57969;SDS011;43777;42.656;23.264;2022-07-06T07:33:26;18.17;;;15.93;;
57969;SDS011;43777;42.656;23.264;2022-07-06T07:35:52;19.25;;;16.88;;
57969;SDS011;43777;42.656;23.264;2022-07-06T07:38:18;19.30;;;17.38;;
57969;SDS011;43777;42.656;23.264;2022-07-06T07:40:44;18.40;;;16.70;;
57969;SDS011;43777;42.656;23.264;2022-07-06T07:43:11;18.77;;;16.95;;
57969;SDS011;43777;42.656;23.264;2022-07-06T07:45:37;18.33;;;16.42;;
57969;SDS011;43777;42.656;23.264;2022-07-06T07:48:03;18.15;;;16.27;;
57969;SDS011;43777;42.656;23.264;2022-07-06T07:50:29;23.60;;;17.65;;
57969;SDS011;43777;42.656;23.264;2022-07-06T07:52:56;19.83;;;17.75;;
57969;SDS011;43777;42.656;23.264;2022-07-06T07:55:22;18.92;;;17.00;;
57969;SDS011;43777;42.656;23.264;2022-07-06T07:57:48;18.92;;;16.20;;
57969;SDS011;43777;42.656;23.264;2022-07-06T08:00:14;17.67;;;15.82;;
57969;SDS011;43777;42.656;23.264;2022-07-06T08:02:40;18.02;;;16.17;;
57969;SDS011;43777;42.656;23.264;2022-07-06T08:05:06;18.48;;;16.67;;
57969;SDS011;43777;42.656;23.264;2022-07-06T08:07:32;18.70;;;16.30;;
57969;SDS011;43777;42.656;23.264;2022-07-06T08:09:58;17.80;;;15.80;;
57969;SDS011;43777;42.656;23.264;2022-07-06T08:12:25;19.52;;;16.38;;
57969;SDS011;43777;42.656;23.264;2022-07-06T08:14:51;18.25;;;16.25;;
57969;SDS011;43777;42.656;23.264;2022-07-06T08:17:17;17.90;;;16.02;;
57969;SDS011;43777;42.656;23.264;2022-07-06T08:19:43;17.75;;;15.48;;
57969;SDS011;43777;42.656;23.264;2022-07-06T08:22:09;17.95;;;16.05;;
57969;SDS011;43777;42.656;23.264;2022-07-06T08:24:35;17.23;;;15.38;;
57969;SDS011;43777;42.656;23.264;2022-07-06T08:27:02;17.80;;;15.65;;
57969;SDS011;43777;42.656;23.264;2022-07-06T08:29:29;16.63;;;15.02;;
57969;SDS011;43777;42.656;23.264;2022-07-06T08:31:55;17.60;;;15.75;;
57969;SDS011;43777;42.656;23.264;2022-07-06T08:34:21;17.80;;;15.40;;
57969;SDS011;43777;42.656;23.264;2022-07-06T08:36:47;18.25;;;15.70;;
57969;SDS011;43777;42.656;23.264;2022-07-06T08:39:14;22.33;;;15.80;;
57969;SDS011;43777;42.656;23.264;2022-07-06T08:41:43;19.40;;;15.50;;
57969;SDS011;43777;42.656;23.264;2022-07-06T08:44:13;19.77;;;17.40;;
57969;SDS011;43777;42.656;23.264;2022-07-06T08:46:40;23.98;;;17.52;;
57969;SDS011;43777;42.656;23.264;2022-07-06T08:49:06;19.50;;;17.15;;
57969;SDS011;43777;42.656;23.264;2022-07-06T08:51:34;21.75;;;16.55;;
57969;SDS011;43777;42.656;23.264;2022-07-06T08:54:02;22.40;;;16.70;;
57969;SDS011;43777;42.656;23.264;2022-07-06T08:56:28;20.27;;;17.02;;
57969;SDS011;43777;42.656;23.264;2022-07-06T08:58:55;24.42;;;16.73;;
57969;SDS011;43777;42.656;23.264;2022-07-06T09:01:21;18.65;;;16.85;;
57969;SDS011;43777;42.656;23.264;2022-07-06T09:03:51;18.95;;;17.02;;
57969;SDS011;43777;42.656;23.264;2022-07-06T09:06:19;17.70;;;16.02;;
57969;SDS011;43777;42.656;23.264;2022-07-06T09:08:49;18.83;;;17.02;;
57969;SDS011;43777;42.656;23.264;2022-07-06T09:11:15;17.48;;;15.60;;
57969;SDS011;43777;42.656;23.264;2022-07-06T09:13:42;18.00;;;16.10;;
57969;SDS011;43777;42.656;23.264;2022-07-06T09:16:12;17.77;;;16.02;;
57969;SDS011;43777;42.656;23.264;2022-07-06T09:18:38;23.13;;;16.25;;
57969;SDS011;43777;42.656;23.264;2022-07-06T09:21:07;17.77;;;15.38;;
57969;SDS011;43777;42.656;23.264;2022-07-06T09:23:33;22.20;;;15.43;;
57969;SDS011;43777;42.656;23.264;2022-07-06T09:26:03;16.83;;;14.90;;
57969;SDS011;43777;42.656;23.264;2022-07-06T09:28:40;15.93;;;14.27;;
57969;SDS011;43777;42.656;23.264;2022-07-06T09:31:07;17.35;;;14.20;;
57969;SDS011;43777;42.656;23.264;2022-07-06T09:33:33;16.75;;;15.15;;
57969;SDS011;43777;42.656;23.264;2022-07-06T09:36:00;17.23;;;14.38;;
57969;SDS011;43777;42.656;23.264;2022-07-06T09:38:27;17.98;;;15.25;;
57969;SDS011;43777;42.656;23.264;2022-07-06T09:40:53;16.45;;;14.50;;
57969;SDS011;43777;42.656;23.264;2022-07-06T09:43:20;16.15;;;14.60;;
57969;SDS011;43777;42.656;23.264;2022-07-06T09:45:51;19.08;;;17.17;;
57969;SDS011;43777;42.656;23.264;2022-07-06T09:48:21;18.88;;;16.98;;
57969;SDS011;43777;42.656;23.264;2022-07-06T09:50:52;19.83;;;17.73;;
57969;SDS011;43777;42.656;23.264;2022-07-06T09:53:19;19.48;;;17.52;;
57969;SDS011;43777;42.656;23.264;2022-07-06T09:55:49;19.80;;;17.38;;
57969;SDS011;43777;42.656;23.264;2022-07-06T09:58:16;18.75;;;17.05;;
57969;SDS011;43777;42.656;23.264;2022-07-06T10:00:43;20.40;;;18.35;;
57969;SDS011;43777;42.656;23.264;2022-07-06T10:03:09;21.83;;;18.60;;
57969;SDS011;43777;42.656;23.264;2022-07-06T10:05:36;18.75;;;16.95;;
57969;SDS011;43777;42.656;23.264;2022-07-06T10:08:03;20.02;;;17.98;;
57969;SDS011;43777;42.656;23.264;2022-07-06T10:10:31;21.45;;;19.25;;
57969;SDS011;43777;42.656;23.264;2022-07-06T10:12:58;19.50;;;17.50;;
57969;SDS011;43777;42.656;23.264;2022-07-06T10:15:25;19.63;;;17.63;;
57969;SDS011;43777;42.656;23.264;2022-07-06T10:17:52;18.92;;;17.20;;
57969;SDS011;43777;42.656;23.264;2022-07-06T10:20:19;18.92;;;17.23;;
57969;SDS011;43777;42.656;23.264;2022-07-06T10:22:46;19.75;;;17.77;;
57969;SDS011;43777;42.656;23.264;2022-07-06T10:25:15;19.30;;;17.42;;
57969;SDS011;43777;42.656;23.264;2022-07-06T10:27:41;19.25;;;17.27;;
57969;SDS011;43777;42.656;23.264;2022-07-06T10:30:08;20.95;;;18.75;;
57969;SDS011;43777;42.656;23.264;2022-07-06T10:32:35;19.42;;;17.52;;
57969;SDS011;43777;42.656;23.264;2022-07-06T10:35:02;21.55;;;18.20;;
57969;SDS011;43777;42.656;23.264;2022-07-06T10:37:28;20.08;;;18.08;;
57969;SDS011;43777;42.656;23.264;2022-07-06T10:39:55;19.05;;;17.23;;
57969;SDS011;43777;42.656;23.264;2022-07-06T10:45:13;18.30;;;16.50;;
57969;SDS011;43777;42.656;23.264;2022-07-06T10:47:43;20.95;;;17.38;;
57969;SDS011;43777;42.656;23.264;2022-07-06T10:50:10;17.80;;;16.10;;
57969;SDS011;43777;42.656;23.264;2022-07-06T10:52:53;19.38;;;15.73;;
57969;SDS011;43777;42.656;23.264;2022-07-06T10:55:34;18.45;;;16.45;;
57969;SDS011;43777;42.656;23.264;2022-07-06T10:58:00;19.45;;;17.45;;
57969;SDS011;43777;42.656;23.264;2022-07-06T11:00:33;19.10;;;17.13;;
57969;SDS011;43777;42.656;23.264;2022-07-06T11:05:57;20.90;;;18.42;;
57969;SDS011;43777;42.656;23.264;2022-07-06T11:08:40;21.58;;;19.23;;
57969;SDS011;43777;42.656;23.264;2022-07-06T11:11:10;25.08;;;18.27;;
57969;SDS011;43777;42.656;23.264;2022-07-06T11:14:11;20.65;;;18.55;;
57969;SDS011;43777;42.656;23.264;2022-07-06T11:16:30;19.08;;;17.17;;
57969;SDS011;43777;42.656;23.264;2022-07-06T11:21:41;20.35;;;18.20;;
57969;SDS011;43777;42.656;23.264;2022-07-06T11:24:14;20.67;;;18.73;;
57969;SDS011;43777;42.656;23.264;2022-07-06T11:26:41;22.70;;;18.80;;
57969;SDS011;43777;42.656;23.264;2022-07-06T11:29:07;21.63;;;19.50;;
57969;SDS011;43777;42.656;23.264;2022-07-06T11:31:35;19.85;;;17.95;;
57969;SDS011;43777;42.656;23.264;2022-07-06T11:34:02;19.70;;;17.70;;
57969;SDS011;43777;42.656;23.264;2022-07-06T11:36:29;20.67;;;18.70;;
57969;SDS011;43777;42.656;23.264;2022-07-06T11:38:55;20.60;;;18.80;;
57969;SDS011;43777;42.656;23.264;2022-07-06T11:41:21;19.73;;;17.63;;
57969;SDS011;43777;42.656;23.264;2022-07-06T11:43:47;19.85;;;17.70;;
57969;SDS011;43777;42.656;23.264;2022-07-06T11:48:49;19.58;;;17.65;;
57969;SDS011;43777;42.656;23.264;2022-07-06T11:51:15;21.20;;;19.20;;
57969;SDS011;43777;42.656;23.264;2022-07-06T11:53:45;19.15;;;17.05;;
57969;SDS011;43777;42.656;23.264;2022-07-06T11:56:12;20.00;;;17.80;;
57969;SDS011;43777;42.656;23.264;2022-07-06T11:58:38;21.08;;;18.92;;
57969;SDS011;43777;42.656;23.264;2022-07-06T12:01:06;21.70;;;19.08;;
57969;SDS011;43777;42.656;23.264;2022-07-06T12:03:32;20.23;;;18.23;;
57969;SDS011;43777;42.656;23.264;2022-07-06T12:06:00;20.30;;;18.30;;
57969;SDS011;43777;42.656;23.264;2022-07-06T12:08:26;21.90;;;19.63;;
57969;SDS011;43777;42.656;23.264;2022-07-06T12:10:52;27.70;;;21.00;;
57969;SDS011;43777;42.656;23.264;2022-07-06T12:13:19;21.80;;;19.67;;
57969;SDS011;43777;42.656;23.264;2022-07-06T12:15:45;22.05;;;19.98;;
57969;SDS011;43777;42.656;23.264;2022-07-06T12:18:11;20.83;;;18.65;;
57969;SDS011;43777;42.656;23.264;2022-07-06T12:20:37;20.63;;;18.60;;
57969;SDS011;43777;42.656;23.264;2022-07-06T12:23:03;19.52;;;17.55;;
57969;SDS011;43777;42.656;23.264;2022-07-06T12:25:33;17.48;;;15.77;;
57969;SDS011;43777;42.656;23.264;2022-07-06T12:27:59;18.40;;;16.85;;
57969;SDS011;43777;42.656;23.264;2022-07-06T12:30:25;19.23;;;17.50;;
57969;SDS011;43777;42.656;23.264;2022-07-06T12:35:36;17.58;;;15.65;;
57969;SDS011;43777;42.656;23.264;2022-07-06T12:38:02;21.90;;;15.75;;
57969;SDS011;43777;42.656;23.264;2022-07-06T12:40:28;17.05;;;15.35;;
57969;SDS011;43777;42.656;23.264;2022-07-06T12:42:55;15.90;;;14.38;;
57969;SDS011;43777;42.656;23.264;2022-07-06T12:45:27;15.27;;;13.88;;
57969;SDS011;43777;42.656;23.264;2022-07-06T12:48:11;13.85;;;12.57;;
57969;SDS011;43777;42.656;23.264;2022-07-06T12:50:39;14.25;;;12.95;;
57969;SDS011;43777;42.656;23.264;2022-07-06T12:53:22;14.55;;;13.18;;
57969;SDS011;43777;42.656;23.264;2022-07-06T12:55:49;14.43;;;12.93;;
57969;SDS011;43777;42.656;23.264;2022-07-06T12:58:18;14.98;;;13.48;;
57969;SDS011;43777;42.656;23.264;2022-07-06T13:00:44;16.17;;;13.32;;
57969;SDS011;43777;42.656;23.264;2022-07-06T13:03:11;15.50;;;13.88;;
57969;SDS011;43777;42.656;23.264;2022-07-06T13:05:37;14.93;;;13.43;;
57969;SDS011;43777;42.656;23.264;2022-07-06T13:08:03;13.18;;;12.00;;
57969;SDS011;43777;42.656;23.264;2022-07-06T13:10:29;14.30;;;12.77;;
57969;SDS011;43777;42.656;23.264;2022-07-06T13:12:55;12.30;;;11.13;;
57969;SDS011;43777;42.656;23.264;2022-07-06T13:15:21;12.23;;;10.60;;
57969;SDS011;43777;42.656;23.264;2022-07-06T13:17:48;10.93;;;9.93;;
57969;SDS011;43777;42.656;23.264;2022-07-06T13:20:14;10.75;;;9.65;;
57969;SDS011;43777;42.656;23.264;2022-07-06T13:22:42;14.95;;;9.48;;
57969;SDS011;43777;42.656;23.264;2022-07-06T13:25:08;10.40;;;9.50;;
57969;SDS011;43777;42.656;23.264;2022-07-06T13:27:34;11.40;;;9.10;;
57969;SDS011;43777;42.656;23.264;2022-07-06T13:30:00;10.25;;;9.02;;
57969;SDS011;43777;42.656;23.264;2022-07-06T13:32:27;8.57;;;7.88;;
57969;SDS011;43777;42.656;23.264;2022-07-06T13:34:53;9.13;;;8.32;;
57969;SDS011;43777;42.656;23.264;2022-07-06T13:37:19;8.70;;;7.80;;
57969;SDS011;43777;42.656;23.264;2022-07-06T13:39:48;7.78;;;7.18;;
57969;SDS011;43777;42.656;23.264;2022-07-06T13:42:14;10.30;;;6.80;;
57969;SDS011;43777;42.656;23.264;2022-07-06T13:44:40;7.30;;;6.60;;
57969;SDS011;43777;42.656;23.264;2022-07-06T13:47:07;9.48;;;6.65;;
57969;SDS011;43777;42.656;23.264;2022-07-06T13:49:33;8.05;;;6.68;;
57969;SDS011;43777;42.656;23.264;2022-07-06T13:51:59;7.45;;;6.10;;
57969;SDS011;43777;42.656;23.264;2022-07-06T13:54:28;6.82;;;5.30;;
57969;SDS011;43777;42.656;23.264;2022-07-06T13:56:55;6.53;;;4.78;;
57969;SDS011;43777;42.656;23.264;2022-07-06T13:59:21;7.43;;;4.93;;
57969;SDS011;43777;42.656;23.264;2022-07-06T14:01:47;5.15;;;4.65;;
57969;SDS011;43777;42.656;23.264;2022-07-06T14:04:13;5.30;;;4.90;;
57969;SDS011;43777;42.656;23.264;2022-07-06T14:06:39;7.25;;;4.80;;
57969;SDS011;43777;42.656;23.264;2022-07-06T14:09:05;4.63;;;4.20;;
57969;SDS011;43777;42.656;23.264;2022-07-06T14:11:31;4.82;;;4.43;;
57969;SDS011;43777;42.656;23.264;2022-07-06T14:13:57;6.43;;;4.32;;
57969;SDS011;43777;42.656;23.264;2022-07-06T14:16:23;10.32;;;4.80;;
57969;SDS011;43777;42.656;23.264;2022-07-06T14:18:49;4.72;;;4.28;;
57969;SDS011;43777;42.656;23.264;2022-07-06T14:21:16;6.32;;;4.70;;
57969;SDS011;43777;42.656;23.264;2022-07-06T14:23:42;5.85;;;4.60;;
57969;SDS011;43777;42.656;23.264;2022-07-06T14:26:08;5.18;;;4.70;;